sensor_id;sensor_type;location;lat;lon;timestamp;P1;durP1;ratioP1;P2;durP2;ratioP2
62844;SDS011;48929;47.910;20.390;2023-03-29T00:00:28;4.50;;;2.70;;
62844;SDS011;48929;47.910;20.390;2023-03-29T00:02:57;5.57;;;3.03;;
62844;SDS011;48929;47.910;20.390;2023-03-29T00:05:30;3.70;;;2.90;;
62844;SDS011;48929;47.910;20.390;2023-03-29T00:08:00;4.57;;;3.08;;
62844;SDS011;48929;47.910;20.390;2023-03-29T00:10:30;5.82;;;3.05;;
62844;SDS011;48929;47.910;20.390;2023-03-29T00:13:08;6.97;;;3.63;;
62844;SDS011;48929;47.910;20.390;2023-03-29T00:15:36;5.22;;;3.08;;
62844;SDS011;48929;47.910;20.390;2023-03-29T00:18:04;4.45;;;2.67;;
62844;SDS011;48929;47.910;20.390;2023-03-29T00:20:35;4.68;;;2.50;;
62844;SDS011;48929;47.910;20.390;2023-03-29T00:23:03;5.90;;;3.00;;
62844;SDS011;48929;47.910;20.390;2023-03-29T00:25:33;5.65;;;2.97;;
62844;SDS011;48929;47.910;20.390;2023-03-29T00:28:03;3.88;;;2.75;;
62844;SDS011;48929;47.910;20.390;2023-03-29T00:30:31;9.30;;;3.25;;
62844;SDS011;48929;47.910;20.390;2023-03-29T00:33:00;5.30;;;3.03;;
62844;SDS011;48929;47.910;20.390;2023-03-29T00:35:29;5.82;;;2.90;;
62844;SDS011;48929;47.910;20.390;2023-03-29T00:38:00;6.28;;;3.65;;
62844;SDS011;48929;47.910;20.390;2023-03-29T00:40:29;9.82;;;4.47;;
62844;SDS011;48929;47.910;20.390;2023-03-29T00:42:57;8.13;;;4.38;;
62844;SDS011;48929;47.910;20.390;2023-03-29T00:45:26;6.22;;;3.05;;
62844;SDS011;48929;47.910;20.390;2023-03-29T00:47:57;4.85;;;3.08;;
62844;SDS011;48929;47.910;20.390;2023-03-29T00:50:29;4.18;;;2.85;;
62844;SDS011;48929;47.910;20.390;2023-03-29T00:53:06;7.35;;;3.40;;
62844;SDS011;48929;47.910;20.390;2023-03-29T00:55:39;5.20;;;3.50;;
62844;SDS011;48929;47.910;20.390;2023-03-29T00:58:12;4.60;;;2.92;;
62844;SDS011;48929;47.910;20.390;2023-03-29T01:00:44;5.28;;;3.20;;
62844;SDS011;48929;47.910;20.390;2023-03-29T01:03:17;6.72;;;3.25;;
62844;SDS011;48929;47.910;20.390;2023-03-29T01:05:53;5.05;;;3.05;;
62844;SDS011;48929;47.910;20.390;2023-03-29T01:08:31;6.03;;;3.50;;
62844;SDS011;48929;47.910;20.390;2023-03-29T01:11:07;4.82;;;2.95;;
62844;SDS011;48929;47.910;20.390;2023-03-29T01:13:40;3.88;;;2.75;;
62844;SDS011;48929;47.910;20.390;2023-03-29T01:16:13;5.55;;;3.13;;
62844;SDS011;48929;47.910;20.390;2023-03-29T01:18:46;5.72;;;3.53;;
62844;SDS011;48929;47.910;20.390;2023-03-29T01:21:18;4.85;;;2.90;;
62844;SDS011;48929;47.910;20.390;2023-03-29T01:26:50;4.93;;;2.70;;
62844;SDS011;48929;47.910;20.390;2023-03-29T01:29:27;6.32;;;2.95;;
62844;SDS011;48929;47.910;20.390;2023-03-29T01:32:02;6.68;;;2.97;;
62844;SDS011;48929;47.910;20.390;2023-03-29T01:34:36;4.63;;;3.38;;
62844;SDS011;48929;47.910;20.390;2023-03-29T01:37:12;4.82;;;3.00;;
62844;SDS011;48929;47.910;20.390;2023-03-29T01:39:46;5.50;;;3.00;;
62844;SDS011;48929;47.910;20.390;2023-03-29T01:45:14;6.60;;;4.00;;
62844;SDS011;48929;47.910;20.390;2023-03-29T01:47:52;5.97;;;3.35;;
62844;SDS011;48929;47.910;20.390;2023-03-29T01:50:28;7.22;;;3.17;;
62844;SDS011;48929;47.910;20.390;2023-03-29T01:53:18;6.90;;;3.35;;
62844;SDS011;48929;47.910;20.390;2023-03-29T01:55:52;6.78;;;3.90;;
62844;SDS011;48929;47.910;20.390;2023-03-29T01:58:26;5.70;;;3.20;;
62844;SDS011;48929;47.910;20.390;2023-03-29T02:01:01;5.60;;;3.50;;
62844;SDS011;48929;47.910;20.390;2023-03-29T02:03:32;5.35;;;3.50;;
62844;SDS011;48929;47.910;20.390;2023-03-29T02:06:08;5.38;;;3.50;;
62844;SDS011;48929;47.910;20.390;2023-03-29T02:08:38;4.75;;;3.28;;
62844;SDS011;48929;47.910;20.390;2023-03-29T02:11:09;8.00;;;3.83;;
62844;SDS011;48929;47.910;20.390;2023-03-29T02:13:41;5.60;;;3.65;;
62844;SDS011;48929;47.910;20.390;2023-03-29T02:16:12;5.85;;;3.60;;
62844;SDS011;48929;47.910;20.390;2023-03-29T02:18:42;6.57;;;3.90;;
62844;SDS011;48929;47.910;20.390;2023-03-29T02:21:15;7.53;;;3.78;;
62844;SDS011;48929;47.910;20.390;2023-03-29T02:23:48;5.78;;;3.90;;
62844;SDS011;48929;47.910;20.390;2023-03-29T02:26:20;5.68;;;3.70;;
62844;SDS011;48929;47.910;20.390;2023-03-29T02:28:50;5.22;;;3.45;;
62844;SDS011;48929;47.910;20.390;2023-03-29T02:31:22;6.00;;;3.80;;
62844;SDS011;48929;47.910;20.390;2023-03-29T02:33:56;5.88;;;3.50;;
62844;SDS011;48929;47.910;20.390;2023-03-29T02:36:28;6.53;;;3.47;;
62844;SDS011;48929;47.910;20.390;2023-03-29T02:39:02;7.80;;;3.80;;
62844;SDS011;48929;47.910;20.390;2023-03-29T02:41:34;7.07;;;3.67;;
62844;SDS011;48929;47.910;20.390;2023-03-29T02:44:04;5.68;;;3.50;;
62844;SDS011;48929;47.910;20.390;2023-03-29T02:46:41;7.90;;;4.82;;
62844;SDS011;48929;47.910;20.390;2023-03-29T02:49:11;4.97;;;3.47;;
62844;SDS011;48929;47.910;20.390;2023-03-29T02:51:40;6.22;;;3.80;;
62844;SDS011;48929;47.910;20.390;2023-03-29T02:54:11;6.38;;;3.55;;
62844;SDS011;48929;47.910;20.390;2023-03-29T02:56:43;8.13;;;4.13;;
62844;SDS011;48929;47.910;20.390;2023-03-29T02:59:14;7.63;;;3.97;;
62844;SDS011;48929;47.910;20.390;2023-03-29T03:01:46;6.32;;;4.10;;
62844;SDS011;48929;47.910;20.390;2023-03-29T03:04:16;9.60;;;3.55;;
62844;SDS011;48929;47.910;20.390;2023-03-29T03:06:46;9.45;;;4.38;;
62844;SDS011;48929;47.910;20.390;2023-03-29T03:09:14;7.53;;;4.20;;
62844;SDS011;48929;47.910;20.390;2023-03-29T03:11:43;11.40;;;4.78;;
62844;SDS011;48929;47.910;20.390;2023-03-29T03:14:12;9.20;;;4.40;;
62844;SDS011;48929;47.910;20.390;2023-03-29T03:16:42;7.20;;;3.70;;
62844;SDS011;48929;47.910;20.390;2023-03-29T03:19:13;7.68;;;4.63;;
62844;SDS011;48929;47.910;20.390;2023-03-29T03:21:42;12.40;;;4.65;;
62844;SDS011;48929;47.910;20.390;2023-03-29T03:24:14;7.35;;;4.85;;
62844;SDS011;48929;47.910;20.390;2023-03-29T03:26:43;9.23;;;4.68;;
62844;SDS011;48929;47.910;20.390;2023-03-29T03:29:12;7.97;;;4.70;;
62844;SDS011;48929;47.910;20.390;2023-03-29T03:31:42;8.13;;;5.45;;
62844;SDS011;48929;47.910;20.390;2023-03-29T03:34:15;13.60;;;6.95;;
62844;SDS011;48929;47.910;20.390;2023-03-29T03:36:45;11.07;;;6.72;;
62844;SDS011;48929;47.910;20.390;2023-03-29T03:39:16;10.60;;;5.93;;
62844;SDS011;48929;47.910;20.390;2023-03-29T03:41:45;12.40;;;6.28;;
62844;SDS011;48929;47.910;20.390;2023-03-29T03:44:14;12.75;;;6.35;;
62844;SDS011;48929;47.910;20.390;2023-03-29T03:46:43;9.25;;;5.32;;
62844;SDS011;48929;47.910;20.390;2023-03-29T03:49:12;13.40;;;6.03;;
62844;SDS011;48929;47.910;20.390;2023-03-29T03:51:47;11.43;;;5.40;;
62844;SDS011;48929;47.910;20.390;2023-03-29T03:54:21;8.80;;;4.93;;
62844;SDS011;48929;47.910;20.390;2023-03-29T03:56:50;10.18;;;5.03;;
62844;SDS011;48929;47.910;20.390;2023-03-29T03:59:19;10.27;;;4.90;;
62844;SDS011;48929;47.910;20.390;2023-03-29T04:01:48;9.23;;;4.57;;
62844;SDS011;48929;47.910;20.390;2023-03-29T04:04:19;8.68;;;4.25;;
62844;SDS011;48929;47.910;20.390;2023-03-29T04:06:49;8.65;;;4.97;;
62844;SDS011;48929;47.910;20.390;2023-03-29T04:09:18;8.00;;;5.20;;
62844;SDS011;48929;47.910;20.390;2023-03-29T04:11:50;7.78;;;4.40;;
62844;SDS011;48929;47.910;20.390;2023-03-29T04:14:22;13.90;;;5.93;;
62844;SDS011;48929;47.910;20.390;2023-03-29T04:16:52;9.55;;;5.70;;
62844;SDS011;48929;47.910;20.390;2023-03-29T04:19:23;8.52;;;5.15;;
62844;SDS011;48929;47.910;20.390;2023-03-29T04:21:53;10.55;;;5.80;;
62844;SDS011;48929;47.910;20.390;2023-03-29T04:24:22;7.65;;;4.43;;
62844;SDS011;48929;47.910;20.390;2023-03-29T04:26:50;9.77;;;5.57;;
62844;SDS011;48929;47.910;20.390;2023-03-29T04:29:19;9.27;;;5.22;;
62844;SDS011;48929;47.910;20.390;2023-03-29T04:31:48;6.68;;;4.57;;
62844;SDS011;48929;47.910;20.390;2023-03-29T04:34:16;9.23;;;5.18;;
62844;SDS011;48929;47.910;20.390;2023-03-29T04:36:47;15.27;;;5.20;;
62844;SDS011;48929;47.910;20.390;2023-03-29T04:39:16;7.85;;;4.97;;
62844;SDS011;48929;47.910;20.390;2023-03-29T04:41:44;8.57;;;4.63;;
62844;SDS011;48929;47.910;20.390;2023-03-29T04:44:13;8.77;;;5.55;;
62844;SDS011;48929;47.910;20.390;2023-03-29T04:46:42;11.55;;;5.15;;
62844;SDS011;48929;47.910;20.390;2023-03-29T04:49:11;10.15;;;6.00;;
62844;SDS011;48929;47.910;20.390;2023-03-29T04:51:40;9.38;;;5.43;;
62844;SDS011;48929;47.910;20.390;2023-03-29T04:54:10;8.95;;;5.47;;
62844;SDS011;48929;47.910;20.390;2023-03-29T04:56:39;12.48;;;6.05;;
62844;SDS011;48929;47.910;20.390;2023-03-29T04:59:11;9.60;;;6.07;;
62844;SDS011;48929;47.910;20.390;2023-03-29T05:01:40;9.82;;;5.32;;
62844;SDS011;48929;47.910;20.390;2023-03-29T05:04:09;8.75;;;5.32;;
62844;SDS011;48929;47.910;20.390;2023-03-29T05:06:41;10.50;;;6.22;;
62844;SDS011;48929;47.910;20.390;2023-03-29T05:09:12;11.32;;;7.03;;
62844;SDS011;48929;47.910;20.390;2023-03-29T05:11:42;10.32;;;6.50;;
62844;SDS011;48929;47.910;20.390;2023-03-29T05:14:10;10.32;;;6.68;;
62844;SDS011;48929;47.910;20.390;2023-03-29T05:16:39;11.93;;;7.13;;
62844;SDS011;48929;47.910;20.390;2023-03-29T05:19:08;12.00;;;7.22;;
62844;SDS011;48929;47.910;20.390;2023-03-29T05:21:37;15.45;;;8.30;;
62844;SDS011;48929;47.910;20.390;2023-03-29T05:24:08;14.30;;;7.80;;
62844;SDS011;48929;47.910;20.390;2023-03-29T05:26:39;12.63;;;6.88;;
62844;SDS011;48929;47.910;20.390;2023-03-29T05:29:08;8.60;;;5.18;;
62844;SDS011;48929;47.910;20.390;2023-03-29T05:31:38;6.82;;;3.92;;
62844;SDS011;48929;47.910;20.390;2023-03-29T05:34:07;6.10;;;4.20;;
62844;SDS011;48929;47.910;20.390;2023-03-29T05:36:36;10.05;;;5.43;;
62844;SDS011;48929;47.910;20.390;2023-03-29T05:39:05;11.05;;;5.18;;
62844;SDS011;48929;47.910;20.390;2023-03-29T05:41:34;7.82;;;3.95;;
62844;SDS011;48929;47.910;20.390;2023-03-29T05:44:07;10.13;;;4.03;;
62844;SDS011;48929;47.910;20.390;2023-03-29T05:46:38;6.07;;;3.47;;
62844;SDS011;48929;47.910;20.390;2023-03-29T05:49:13;7.57;;;3.92;;
62844;SDS011;48929;47.910;20.390;2023-03-29T05:51:42;6.25;;;3.47;;
62844;SDS011;48929;47.910;20.390;2023-03-29T05:54:11;5.35;;;3.40;;
62844;SDS011;48929;47.910;20.390;2023-03-29T05:56:40;9.93;;;3.90;;
62844;SDS011;48929;47.910;20.390;2023-03-29T05:59:11;8.07;;;3.05;;
62844;SDS011;48929;47.910;20.390;2023-03-29T06:01:40;6.00;;;2.97;;
62844;SDS011;48929;47.910;20.390;2023-03-29T06:04:15;6.70;;;3.50;;
62844;SDS011;48929;47.910;20.390;2023-03-29T06:06:44;5.20;;;3.00;;
62844;SDS011;48929;47.910;20.390;2023-03-29T06:09:14;8.13;;;3.67;;
62844;SDS011;48929;47.910;20.390;2023-03-29T06:11:43;5.63;;;3.30;;
62844;SDS011;48929;47.910;20.390;2023-03-29T06:14:13;3.13;;;2.47;;
62844;SDS011;48929;47.910;20.390;2023-03-29T06:16:43;5.53;;;3.40;;
62844;SDS011;48929;47.910;20.390;2023-03-29T06:19:12;7.93;;;4.68;;
62844;SDS011;48929;47.910;20.390;2023-03-29T06:21:41;9.30;;;5.53;;
62844;SDS011;48929;47.910;20.390;2023-03-29T06:24:10;12.63;;;6.20;;
62844;SDS011;48929;47.910;20.390;2023-03-29T06:26:39;15.70;;;7.75;;
62844;SDS011;48929;47.910;20.390;2023-03-29T06:29:08;17.95;;;7.63;;
62844;SDS011;48929;47.910;20.390;2023-03-29T06:31:38;17.10;;;8.02;;
62844;SDS011;48929;47.910;20.390;2023-03-29T06:34:07;16.75;;;7.47;;
62844;SDS011;48929;47.910;20.390;2023-03-29T06:36:36;15.18;;;7.70;;
62844;SDS011;48929;47.910;20.390;2023-03-29T06:39:05;12.05;;;6.35;;
62844;SDS011;48929;47.910;20.390;2023-03-29T06:41:34;9.95;;;5.05;;
62844;SDS011;48929;47.910;20.390;2023-03-29T06:44:02;9.65;;;5.20;;
62844;SDS011;48929;47.910;20.390;2023-03-29T06:46:32;7.90;;;4.25;;
62844;SDS011;48929;47.910;20.390;2023-03-29T06:49:04;11.68;;;5.20;;
62844;SDS011;48929;47.910;20.390;2023-03-29T06:51:33;9.52;;;5.32;;
62844;SDS011;48929;47.910;20.390;2023-03-29T06:54:03;18.35;;;6.78;;
62844;SDS011;48929;47.910;20.390;2023-03-29T06:56:32;15.60;;;6.65;;
62844;SDS011;48929;47.910;20.390;2023-03-29T06:59:01;12.75;;;5.45;;
62844;SDS011;48929;47.910;20.390;2023-03-29T07:01:30;16.33;;;5.97;;
62844;SDS011;48929;47.910;20.390;2023-03-29T07:04:00;11.05;;;4.78;;
62844;SDS011;48929;47.910;20.390;2023-03-29T07:06:32;7.03;;;4.05;;
62844;SDS011;48929;47.910;20.390;2023-03-29T07:09:02;18.27;;;7.50;;
62844;SDS011;48929;47.910;20.390;2023-03-29T07:11:32;11.10;;;5.07;;
62844;SDS011;48929;47.910;20.390;2023-03-29T07:14:02;11.63;;;5.15;;
62844;SDS011;48929;47.910;20.390;2023-03-29T07:16:30;9.30;;;4.28;;
62844;SDS011;48929;47.910;20.390;2023-03-29T07:18:59;7.35;;;4.28;;
62844;SDS011;48929;47.910;20.390;2023-03-29T07:21:29;9.65;;;4.50;;
62844;SDS011;48929;47.910;20.390;2023-03-29T07:24:02;8.98;;;4.57;;
62844;SDS011;48929;47.910;20.390;2023-03-29T07:26:32;12.73;;;6.18;;
62844;SDS011;48929;47.910;20.390;2023-03-29T07:29:01;8.27;;;4.10;;
62844;SDS011;48929;47.910;20.390;2023-03-29T07:31:29;8.38;;;4.32;;
62844;SDS011;48929;47.910;20.390;2023-03-29T07:34:00;5.63;;;3.63;;
62844;SDS011;48929;47.910;20.390;2023-03-29T07:36:31;5.45;;;3.85;;
62844;SDS011;48929;47.910;20.390;2023-03-29T07:39:02;6.65;;;3.88;;
62844;SDS011;48929;47.910;20.390;2023-03-29T07:41:34;5.55;;;3.50;;
62844;SDS011;48929;47.910;20.390;2023-03-29T07:44:03;7.18;;;3.47;;
62844;SDS011;48929;47.910;20.390;2023-03-29T07:46:34;6.43;;;3.92;;
62844;SDS011;48929;47.910;20.390;2023-03-29T07:49:03;5.72;;;3.40;;
62844;SDS011;48929;47.910;20.390;2023-03-29T07:51:34;6.88;;;3.67;;
62844;SDS011;48929;47.910;20.390;2023-03-29T07:54:05;5.53;;;3.35;;
62844;SDS011;48929;47.910;20.390;2023-03-29T07:56:34;5.15;;;3.28;;
62844;SDS011;48929;47.910;20.390;2023-03-29T07:59:04;6.07;;;3.60;;
62844;SDS011;48929;47.910;20.390;2023-03-29T08:01:32;9.02;;;4.60;;
62844;SDS011;48929;47.910;20.390;2023-03-29T08:04:01;6.18;;;3.47;;
62844;SDS011;48929;47.910;20.390;2023-03-29T08:06:30;5.55;;;3.70;;
62844;SDS011;48929;47.910;20.390;2023-03-29T08:08:59;8.80;;;4.05;;
62844;SDS011;48929;47.910;20.390;2023-03-29T08:11:30;5.57;;;3.20;;
62844;SDS011;48929;47.910;20.390;2023-03-29T08:14:01;6.70;;;3.80;;
62844;SDS011;48929;47.910;20.390;2023-03-29T08:16:29;8.38;;;4.20;;
62844;SDS011;48929;47.910;20.390;2023-03-29T08:18:58;5.97;;;3.40;;
62844;SDS011;48929;47.910;20.390;2023-03-29T08:21:27;6.32;;;3.22;;
62844;SDS011;48929;47.910;20.390;2023-03-29T08:23:57;4.22;;;2.78;;
62844;SDS011;48929;47.910;20.390;2023-03-29T08:26:27;4.22;;;2.80;;
62844;SDS011;48929;47.910;20.390;2023-03-29T08:29:00;4.97;;;2.95;;
62844;SDS011;48929;47.910;20.390;2023-03-29T08:31:29;6.95;;;2.90;;
62844;SDS011;48929;47.910;20.390;2023-03-29T08:33:58;3.95;;;2.67;;
62844;SDS011;48929;47.910;20.390;2023-03-29T08:36:26;5.93;;;2.97;;
62844;SDS011;48929;47.910;20.390;2023-03-29T08:38:55;6.53;;;3.08;;
62844;SDS011;48929;47.910;20.390;2023-03-29T08:41:28;4.03;;;2.45;;
62844;SDS011;48929;47.910;20.390;2023-03-29T08:44:12;5.30;;;3.10;;
62844;SDS011;48929;47.910;20.390;2023-03-29T08:46:50;6.30;;;3.50;;
62844;SDS011;48929;47.910;20.390;2023-03-29T08:49:26;6.65;;;3.42;;
62844;SDS011;48929;47.910;20.390;2023-03-29T08:51:57;5.40;;;3.55;;
62844;SDS011;48929;47.910;20.390;2023-03-29T08:54:30;6.18;;;3.88;;
62844;SDS011;48929;47.910;20.390;2023-03-29T08:57:03;5.22;;;3.60;;
62844;SDS011;48929;47.910;20.390;2023-03-29T08:59:49;5.30;;;3.25;;
62844;SDS011;48929;47.910;20.390;2023-03-29T09:02:23;7.80;;;4.47;;
62844;SDS011;48929;47.910;20.390;2023-03-29T09:04:55;5.65;;;3.55;;
62844;SDS011;48929;47.910;20.390;2023-03-29T09:07:34;8.00;;;4.72;;
62844;SDS011;48929;47.910;20.390;2023-03-29T09:10:03;7.75;;;4.63;;
62844;SDS011;48929;47.910;20.390;2023-03-29T09:12:36;6.15;;;4.38;;
62844;SDS011;48929;47.910;20.390;2023-03-29T09:15:14;6.15;;;3.90;;
62844;SDS011;48929;47.910;20.390;2023-03-29T09:17:48;7.78;;;4.20;;
62844;SDS011;48929;47.910;20.390;2023-03-29T09:20:26;7.10;;;4.13;;
62844;SDS011;48929;47.910;20.390;2023-03-29T09:23:06;6.43;;;3.38;;
62844;SDS011;48929;47.910;20.390;2023-03-29T09:25:51;5.90;;;3.58;;
62844;SDS011;48929;47.910;20.390;2023-03-29T09:28:30;5.43;;;3.17;;
62844;SDS011;48929;47.910;20.390;2023-03-29T09:31:07;6.85;;;3.58;;
62844;SDS011;48929;47.910;20.390;2023-03-29T09:33:43;5.43;;;3.55;;
62844;SDS011;48929;47.910;20.390;2023-03-29T09:36:27;6.88;;;3.40;;
62844;SDS011;48929;47.910;20.390;2023-03-29T09:39:02;6.53;;;3.38;;
62844;SDS011;48929;47.910;20.390;2023-03-29T09:41:32;5.72;;;3.25;;
62844;SDS011;48929;47.910;20.390;2023-03-29T09:44:07;6.97;;;3.88;;
62844;SDS011;48929;47.910;20.390;2023-03-29T09:46:57;6.53;;;3.75;;
62844;SDS011;48929;47.910;20.390;2023-03-29T09:49:31;6.63;;;3.60;;
62844;SDS011;48929;47.910;20.390;2023-03-29T09:52:04;6.50;;;3.83;;
62844;SDS011;48929;47.910;20.390;2023-03-29T09:54:38;7.65;;;4.07;;
62844;SDS011;48929;47.910;20.390;2023-03-29T09:57:08;6.53;;;4.07;;
62844;SDS011;48929;47.910;20.390;2023-03-29T09:59:38;5.45;;;3.70;;
62844;SDS011;48929;47.910;20.390;2023-03-29T10:02:12;6.07;;;4.07;;
62844;SDS011;48929;47.910;20.390;2023-03-29T10:04:41;6.75;;;4.07;;
62844;SDS011;48929;47.910;20.390;2023-03-29T10:07:14;7.28;;;4.07;;
62844;SDS011;48929;47.910;20.390;2023-03-29T10:09:44;7.40;;;4.60;;
62844;SDS011;48929;47.910;20.390;2023-03-29T10:12:16;6.80;;;3.80;;
62844;SDS011;48929;47.910;20.390;2023-03-29T10:14:46;6.47;;;3.78;;
62844;SDS011;48929;47.910;20.390;2023-03-29T10:17:21;8.63;;;4.10;;
62844;SDS011;48929;47.910;20.390;2023-03-29T10:19:54;5.38;;;3.28;;
62844;SDS011;48929;47.910;20.390;2023-03-29T10:22:30;8.05;;;4.88;;
62844;SDS011;48929;47.910;20.390;2023-03-29T10:25:00;6.68;;;4.40;;
62844;SDS011;48929;47.910;20.390;2023-03-29T10:27:30;7.18;;;4.28;;
62844;SDS011;48929;47.910;20.390;2023-03-29T10:30:06;6.03;;;3.58;;
62844;SDS011;48929;47.910;20.390;2023-03-29T10:32:40;6.50;;;4.00;;
62844;SDS011;48929;47.910;20.390;2023-03-29T10:35:09;6.60;;;3.42;;
62844;SDS011;48929;47.910;20.390;2023-03-29T10:37:47;6.45;;;3.60;;
62844;SDS011;48929;47.910;20.390;2023-03-29T10:40:19;6.40;;;3.40;;
62844;SDS011;48929;47.910;20.390;2023-03-29T10:42:50;10.95;;;8.13;;
62844;SDS011;48929;47.910;20.390;2023-03-29T10:45:19;9.43;;;5.15;;
62844;SDS011;48929;47.910;20.390;2023-03-29T10:47:55;6.10;;;3.70;;
62844;SDS011;48929;47.910;20.390;2023-03-29T10:50:24;5.70;;;3.78;;
62844;SDS011;48929;47.910;20.390;2023-03-29T10:52:59;7.45;;;3.65;;
62844;SDS011;48929;47.910;20.390;2023-03-29T10:55:31;6.97;;;3.28;;
62844;SDS011;48929;47.910;20.390;2023-03-29T10:58:07;7.40;;;4.05;;
62844;SDS011;48929;47.910;20.390;2023-03-29T11:00:53;6.45;;;3.50;;
62844;SDS011;48929;47.910;20.390;2023-03-29T11:06:23;6.75;;;3.50;;
62844;SDS011;48929;47.910;20.390;2023-03-29T11:09:00;4.95;;;3.00;;
62844;SDS011;48929;47.910;20.390;2023-03-29T11:11:39;4.65;;;2.67;;
62844;SDS011;48929;47.910;20.390;2023-03-29T11:14:35;4.15;;;2.33;;
62844;SDS011;48929;47.910;20.390;2023-03-29T11:17:17;4.45;;;2.47;;
62844;SDS011;48929;47.910;20.390;2023-03-29T11:20:00;5.90;;;2.85;;
62844;SDS011;48929;47.910;20.390;2023-03-29T11:22:39;4.78;;;2.65;;
62844;SDS011;48929;47.910;20.390;2023-03-29T11:25:18;5.55;;;2.78;;
62844;SDS011;48929;47.910;20.390;2023-03-29T11:27:56;5.47;;;3.00;;
62844;SDS011;48929;47.910;20.390;2023-03-29T11:30:29;3.78;;;2.60;;
62844;SDS011;48929;47.910;20.390;2023-03-29T11:33:06;3.63;;;2.50;;
62844;SDS011;48929;47.910;20.390;2023-03-29T11:35:49;5.82;;;2.60;;
62844;SDS011;48929;47.910;20.390;2023-03-29T11:38:25;5.47;;;3.55;;
62844;SDS011;48929;47.910;20.390;2023-03-29T11:41:00;3.38;;;2.40;;
62844;SDS011;48929;47.910;20.390;2023-03-29T11:43:33;4.65;;;2.35;;
62844;SDS011;48929;47.910;20.390;2023-03-29T11:46:07;5.82;;;2.47;;
62844;SDS011;48929;47.910;20.390;2023-03-29T11:48:40;4.05;;;2.60;;
62844;SDS011;48929;47.910;20.390;2023-03-29T11:51:17;4.13;;;2.47;;
62844;SDS011;48929;47.910;20.390;2023-03-29T11:53:53;4.47;;;3.00;;
62844;SDS011;48929;47.910;20.390;2023-03-29T11:56:27;4.30;;;2.65;;
62844;SDS011;48929;47.910;20.390;2023-03-29T11:59:01;4.22;;;2.47;;
62844;SDS011;48929;47.910;20.390;2023-03-29T12:01:35;4.38;;;2.72;;
62844;SDS011;48929;47.910;20.390;2023-03-29T12:04:09;4.07;;;2.40;;
62844;SDS011;48929;47.910;20.390;2023-03-29T12:06:51;5.63;;;2.28;;
62844;SDS011;48929;47.910;20.390;2023-03-29T12:09:30;4.80;;;3.00;;
62844;SDS011;48929;47.910;20.390;2023-03-29T12:12:04;6.28;;;4.30;;
62844;SDS011;48929;47.910;20.390;2023-03-29T12:14:51;4.13;;;2.58;;
62844;SDS011;48929;47.910;20.390;2023-03-29T12:17:26;3.53;;;2.25;;
62844;SDS011;48929;47.910;20.390;2023-03-29T12:20:10;3.97;;;1.95;;
62844;SDS011;48929;47.910;20.390;2023-03-29T12:22:45;4.43;;;2.53;;
62844;SDS011;48929;47.910;20.390;2023-03-29T12:25:17;4.45;;;2.50;;
62844;SDS011;48929;47.910;20.390;2023-03-29T12:27:56;4.95;;;2.42;;
62844;SDS011;48929;47.910;20.390;2023-03-29T12:30:39;6.28;;;3.42;;
62844;SDS011;48929;47.910;20.390;2023-03-29T12:33:26;4.78;;;2.60;;
62844;SDS011;48929;47.910;20.390;2023-03-29T12:36:17;5.55;;;3.58;;
62844;SDS011;48929;47.910;20.390;2023-03-29T12:39:04;2.78;;;2.00;;
62844;SDS011;48929;47.910;20.390;2023-03-29T12:41:38;3.08;;;2.10;;
62844;SDS011;48929;47.910;20.390;2023-03-29T12:44:10;4.13;;;1.90;;
62844;SDS011;48929;47.910;20.390;2023-03-29T12:46:43;3.75;;;2.30;;
62844;SDS011;48929;47.910;20.390;2023-03-29T12:49:13;4.50;;;2.65;;
62844;SDS011;48929;47.910;20.390;2023-03-29T12:51:54;4.25;;;2.20;;
62844;SDS011;48929;47.910;20.390;2023-03-29T12:54:26;2.85;;;1.92;;
62844;SDS011;48929;47.910;20.390;2023-03-29T12:56:59;3.60;;;2.00;;
62844;SDS011;48929;47.910;20.390;2023-03-29T12:59:36;5.25;;;2.20;;
62844;SDS011;48929;47.910;20.390;2023-03-29T13:04:54;4.13;;;2.15;;
62844;SDS011;48929;47.910;20.390;2023-03-29T13:07:28;2.70;;;1.95;;
62844;SDS011;48929;47.910;20.390;2023-03-29T13:10:00;6.40;;;2.40;;
62844;SDS011;48929;47.910;20.390;2023-03-29T13:12:34;8.43;;;5.75;;
62844;SDS011;48929;47.910;20.390;2023-03-29T13:15:06;4.15;;;2.15;;
62844;SDS011;48929;47.910;20.390;2023-03-29T13:17:51;3.67;;;2.20;;
62844;SDS011;48929;47.910;20.390;2023-03-29T13:20:30;4.05;;;3.05;;
62844;SDS011;48929;47.910;20.390;2023-03-29T13:23:14;2.85;;;2.00;;
62844;SDS011;48929;47.910;20.390;2023-03-29T13:25:58;3.13;;;2.33;;
62844;SDS011;48929;47.910;20.390;2023-03-29T13:28:38;4.55;;;2.85;;
62844;SDS011;48929;47.910;20.390;2023-03-29T13:31:28;4.20;;;2.78;;
62844;SDS011;48929;47.910;20.390;2023-03-29T13:34:03;6.80;;;3.00;;
62844;SDS011;48929;47.910;20.390;2023-03-29T13:36:51;3.35;;;2.22;;
62844;SDS011;48929;47.910;20.390;2023-03-29T13:39:29;4.75;;;2.15;;
62844;SDS011;48929;47.910;20.390;2023-03-29T13:42:15;3.45;;;1.80;;
62844;SDS011;48929;47.910;20.390;2023-03-29T13:44:47;3.75;;;2.20;;
62844;SDS011;48929;47.910;20.390;2023-03-29T13:47:26;3.45;;;2.60;;
62844;SDS011;48929;47.910;20.390;2023-03-29T13:50:05;5.38;;;3.90;;
62844;SDS011;48929;47.910;20.390;2023-03-29T13:52:40;4.13;;;2.25;;
62844;SDS011;48929;47.910;20.390;2023-03-29T13:55:13;4.07;;;2.55;;
62844;SDS011;48929;47.910;20.390;2023-03-29T13:57:50;4.28;;;2.88;;
62844;SDS011;48929;47.910;20.390;2023-03-29T14:00:23;2.78;;;1.95;;
62844;SDS011;48929;47.910;20.390;2023-03-29T14:02:56;4.03;;;2.70;;
62844;SDS011;48929;47.910;20.390;2023-03-29T14:05:27;5.25;;;2.25;;
62844;SDS011;48929;47.910;20.390;2023-03-29T14:08:00;4.65;;;2.53;;
62844;SDS011;48929;47.910;20.390;2023-03-29T14:10:36;5.65;;;2.75;;
62844;SDS011;48929;47.910;20.390;2023-03-29T14:13:11;3.03;;;2.20;;
62844;SDS011;48929;47.910;20.390;2023-03-29T14:15:42;4.15;;;2.60;;
62844;SDS011;48929;47.910;20.390;2023-03-29T14:18:14;3.47;;;2.00;;
62844;SDS011;48929;47.910;20.390;2023-03-29T14:20:47;2.38;;;1.73;;
62844;SDS011;48929;47.910;20.390;2023-03-29T14:23:19;4.05;;;2.28;;
62844;SDS011;48929;47.910;20.390;2023-03-29T14:25:50;4.40;;;2.20;;
62844;SDS011;48929;47.910;20.390;2023-03-29T14:28:33;6.75;;;5.28;;
62844;SDS011;48929;47.910;20.390;2023-03-29T14:31:02;3.67;;;2.80;;
62844;SDS011;48929;47.910;20.390;2023-03-29T14:33:33;4.65;;;3.25;;
62844;SDS011;48929;47.910;20.390;2023-03-29T14:36:04;3.63;;;2.47;;
62844;SDS011;48929;47.910;20.390;2023-03-29T14:38:34;5.18;;;2.60;;
62844;SDS011;48929;47.910;20.390;2023-03-29T14:41:03;4.80;;;2.50;;
62844;SDS011;48929;47.910;20.390;2023-03-29T14:43:34;3.95;;;2.40;;
62844;SDS011;48929;47.910;20.390;2023-03-29T14:46:03;6.03;;;2.47;;
62844;SDS011;48929;47.910;20.390;2023-03-29T14:48:34;2.72;;;2.00;;
62844;SDS011;48929;47.910;20.390;2023-03-29T14:51:03;3.88;;;2.20;;
62844;SDS011;48929;47.910;20.390;2023-03-29T14:53:33;3.40;;;2.20;;
62844;SDS011;48929;47.910;20.390;2023-03-29T14:56:05;2.15;;;1.80;;
62844;SDS011;48929;47.910;20.390;2023-03-29T14:58:39;3.80;;;2.20;;
62844;SDS011;48929;47.910;20.390;2023-03-29T15:01:14;4.57;;;3.17;;
62844;SDS011;48929;47.910;20.390;2023-03-29T15:03:48;10.20;;;4.47;;
62844;SDS011;48929;47.910;20.390;2023-03-29T15:06:20;10.53;;;6.80;;
62844;SDS011;48929;47.910;20.390;2023-03-29T15:08:50;8.40;;;4.88;;
62844;SDS011;48929;47.910;20.390;2023-03-29T15:11:31;5.72;;;3.78;;
62844;SDS011;48929;47.910;20.390;2023-03-29T15:14:02;4.28;;;2.50;;
62844;SDS011;48929;47.910;20.390;2023-03-29T15:16:33;4.50;;;3.10;;